sensor_id;sensor_type;location;lat;lon;timestamp;pressure;altitude;pressure_sealevel;temperature;humidity
66524;BME280;53350;52.210;5.160;2023-03-19T00:01:06;101067.47;;;13.57;73.50
66524;BME280;53350;52.210;5.160;2023-03-19T00:03:33;101068.34;;;13.56;73.35
66524;BME280;53350;52.210;5.160;2023-03-19T00:06:00;101064.88;;;13.57;73.81
66524;BME280;53350;52.210;5.160;2023-03-19T00:08:28;101062.28;;;13.55;73.27
66524;BME280;53350;52.210;5.160;2023-03-19T00:10:54;101063.16;;;13.56;73.61
66524;BME280;53350;52.210;5.160;2023-03-19T00:13:22;101060.59;;;13.54;73.47
66524;BME280;53350;52.210;5.160;2023-03-19T00:15:48;101063.25;;;13.51;73.58
66524;BME280;53350;52.210;5.160;2023-03-19T00:18:15;101073.53;;;13.54;73.79
66524;BME280;53350;52.210;5.160;2023-03-19T00:20:42;101075.22;;;13.55;73.73
66524;BME280;53350;52.210;5.160;2023-03-19T00:23:08;101073.47;;;13.57;73.78
66524;BME280;53350;52.210;5.160;2023-03-19T00:25:35;101081.25;;;13.57;73.90
66524;BME280;53350;52.210;5.160;2023-03-19T00:28:01;101080.41;;;13.55;73.34
66524;BME280;53350;52.210;5.160;2023-03-19T00:30:29;101076.09;;;13.56;73.66
66524;BME280;53350;52.210;5.160;2023-03-19T00:32:55;101074.38;;;13.55;73.90
66524;BME280;53350;52.210;5.160;2023-03-19T00:35:22;101081.34;;;13.53;73.74
66524;BME280;53350;52.210;5.160;2023-03-19T00:37:48;101076.91;;;13.58;73.76
66524;BME280;53350;52.210;5.160;2023-03-19T00:40:15;101083.91;;;13.54;73.70
66524;BME280;53350;52.210;5.160;2023-03-19T00:42:41;101084.88;;;13.49;73.79
66524;BME280;53350;52.210;5.160;2023-03-19T00:45:10;101084.00;;;13.48;74.04
66524;BME280;53350;52.210;5.160;2023-03-19T00:47:38;101091.81;;;13.45;74.29
66524;BME280;53350;52.210;5.160;2023-03-19T00:50:05;101088.53;;;13.38;74.21
66524;BME280;53350;52.210;5.160;2023-03-19T00:52:31;101090.16;;;13.44;74.32
66524;BME280;53350;52.210;5.160;2023-03-19T00:54:58;101091.03;;;13.43;74.26
66524;BME280;53350;52.210;5.160;2023-03-19T00:57:24;101084.91;;;13.47;74.34
66524;BME280;53350;52.210;5.160;2023-03-19T00:59:51;101096.13;;;13.46;74.22
66524;BME280;53350;52.210;5.160;2023-03-19T01:02:17;101101.28;;;13.48;74.39
66524;BME280;53350;52.210;5.160;2023-03-19T01:04:46;101098.69;;;13.48;74.08
66524;BME280;53350;52.210;5.160;2023-03-19T01:07:13;101095.22;;;13.49;74.25
66524;BME280;53350;52.210;5.160;2023-03-19T01:09:39;101097.03;;;13.44;74.71
66524;BME280;53350;52.210;5.160;2023-03-19T01:12:06;101097.94;;;13.43;74.69
66524;BME280;53350;52.210;5.160;2023-03-19T01:14:33;101098.84;;;13.40;74.54
66524;BME280;53350;52.210;5.160;2023-03-19T01:17:00;101097.09;;;13.41;74.88
66524;BME280;53350;52.210;5.160;2023-03-19T01:19:26;101100.69;;;13.32;74.90
66524;BME280;53350;52.210;5.160;2023-03-19T01:21:54;101104.16;;;13.31;75.23
66524;BME280;53350;52.210;5.160;2023-03-19T01:24:20;101103.34;;;13.29;74.82
66524;BME280;53350;52.210;5.160;2023-03-19T01:26:47;101104.19;;;13.29;74.88
66524;BME280;53350;52.210;5.160;2023-03-19T01:29:13;101105.94;;;13.29;75.05
66524;BME280;53350;52.210;5.160;2023-03-19T01:31:40;101089.53;;;13.30;75.10
66524;BME280;53350;52.210;5.160;2023-03-19T01:34:06;101092.97;;;13.30;75.04
66524;BME280;53350;52.210;5.160;2023-03-19T01:36:32;101098.97;;;13.31;74.99
66524;BME280;53350;52.210;5.160;2023-03-19T01:39:00;101100.72;;;13.30;74.61
66524;BME280;53350;52.210;5.160;2023-03-19T01:41:27;101092.97;;;13.30;74.94
66524;BME280;53350;52.210;5.160;2023-03-19T01:43:53;101091.22;;;13.31;75.01
66524;BME280;53350;52.210;5.160;2023-03-19T01:46:24;101092.94;;;13.32;74.46
66524;BME280;53350;52.210;5.160;2023-03-19T01:48:54;101101.59;;;13.29;74.62
66524;BME280;53350;52.210;5.160;2023-03-19T01:51:25;101096.50;;;13.26;74.74
66524;BME280;53350;52.210;5.160;2023-03-19T01:53:56;101097.38;;;13.23;74.94
66524;BME280;53350;52.210;5.160;2023-03-19T01:56:27;101092.19;;;13.25;74.78
66524;BME280;53350;52.210;5.160;2023-03-19T01:58:58;101097.41;;;13.22;74.62
66524;BME280;53350;52.210;5.160;2023-03-19T02:01:27;101094.03;;;13.20;74.77
66524;BME280;53350;52.210;5.160;2023-03-19T02:03:54;101098.38;;;13.18;74.76
66524;BME280;53350;52.210;5.160;2023-03-19T02:06:22;101095.06;;;13.11;74.79
66524;BME280;53350;52.210;5.160;2023-03-19T02:08:50;101115.63;;;13.17;74.86
66524;BME280;53350;52.210;5.160;2023-03-19T02:11:17;101112.22;;;13.15;74.22
66524;BME280;53350;52.210;5.160;2023-03-19T02:13:45;101112.28;;;13.12;74.43
66524;BME280;53350;52.210;5.160;2023-03-19T02:16:12;101114.00;;;13.12;74.66
66524;BME280;53350;52.210;5.160;2023-03-19T02:18:39;101109.72;;;13.09;74.19
66524;BME280;53350;52.210;5.160;2023-03-19T02:21:07;101105.47;;;13.08;74.63
66524;BME280;53350;52.210;5.160;2023-03-19T02:23:38;101111.59;;;13.02;74.25
66524;BME280;53350;52.210;5.160;2023-03-19T02:26:11;101110.00;;;12.95;74.65
66524;BME280;53350;52.210;5.160;2023-03-19T02:28:41;101112.69;;;12.91;74.70
66524;BME280;53350;52.210;5.160;2023-03-19T02:31:09;101117.91;;;12.87;74.91
66524;BME280;53350;52.210;5.160;2023-03-19T02:33:36;101112.75;;;12.84;75.16
66524;BME280;53350;52.210;5.160;2023-03-19T02:36:04;101120.56;;;12.81;75.04
66524;BME280;53350;52.210;5.160;2023-03-19T02:38:33;101116.28;;;12.79;75.21
66524;BME280;53350;52.210;5.160;2023-03-19T02:41:01;101105.28;;;12.69;75.06
66524;BME280;53350;52.210;5.160;2023-03-19T02:43:31;101117.28;;;12.73;75.37
66524;BME280;53350;52.210;5.160;2023-03-19T02:45:58;101112.16;;;12.72;75.47
66524;BME280;53350;52.210;5.160;2023-03-19T02:48:25;101123.34;;;12.70;75.39
66524;BME280;53350;52.210;5.160;2023-03-19T02:50:52;101125.13;;;12.67;75.23
66524;BME280;53350;52.210;5.160;2023-03-19T02:53:18;101129.47;;;12.65;75.62
66524;BME280;53350;52.210;5.160;2023-03-19T02:55:45;101127.78;;;12.62;75.55
66524;BME280;53350;52.210;5.160;2023-03-19T02:58:11;101131.22;;;12.61;75.51
66524;BME280;53350;52.210;5.160;2023-03-19T03:00:40;101131.25;;;12.60;75.61
66524;BME280;53350;52.210;5.160;2023-03-19T03:03:06;101138.16;;;12.59;75.01
66524;BME280;53350;52.210;5.160;2023-03-19T03:05:33;101133.94;;;12.55;75.67
66524;BME280;53350;52.210;5.160;2023-03-19T03:08:00;101133.09;;;12.53;75.44
66524;BME280;53350;52.210;5.160;2023-03-19T03:10:27;101130.56;;;12.51;75.91
66524;BME280;53350;52.210;5.160;2023-03-19T03:12:53;101136.56;;;12.52;75.82
66524;BME280;53350;52.210;5.160;2023-03-19T03:15:20;101127.97;;;12.51;75.76
66524;BME280;53350;52.210;5.160;2023-03-19T03:17:48;101133.13;;;12.51;75.53
66524;BME280;53350;52.210;5.160;2023-03-19T03:20:15;101131.41;;;12.50;75.58
66524;BME280;53350;52.210;5.160;2023-03-19T03:22:44;101127.97;;;12.51;75.46
66524;BME280;53350;52.210;5.160;2023-03-19T03:25:11;101131.41;;;12.52;75.52
66524;BME280;53350;52.210;5.160;2023-03-19T03:27:38;101138.31;;;12.51;75.40
66524;BME280;53350;52.210;5.160;2023-03-19T03:30:05;101135.75;;;12.50;75.49
66524;BME280;53350;52.210;5.160;2023-03-19T03:32:33;101134.91;;;12.48;75.16
66524;BME280;53350;52.210;5.160;2023-03-19T03:35:01;101128.06;;;12.44;75.18
66524;BME280;53350;52.210;5.160;2023-03-19T03:37:28;101127.25;;;12.42;74.34
66524;BME280;53350;52.210;5.160;2023-03-19T03:39:54;101122.13;;;12.39;75.09
66524;BME280;53350;52.210;5.160;2023-03-19T03:42:21;101128.19;;;12.36;75.15
66524;BME280;53350;52.210;5.160;2023-03-19T03:44:47;101135.09;;;12.35;75.06
66524;BME280;53350;52.210;5.160;2023-03-19T03:47:14;101129.94;;;12.32;74.88
66524;BME280;53350;52.210;5.160;2023-03-19T03:49:42;101130.88;;;12.30;74.80
66524;BME280;53350;52.210;5.160;2023-03-19T03:52:10;101130.94;;;12.25;74.87
66524;BME280;53350;52.210;5.160;2023-03-19T03:54:37;101134.44;;;12.23;74.26
66524;BME280;53350;52.210;5.160;2023-03-19T03:57:03;101134.44;;;12.21;74.70
66524;BME280;53350;52.210;5.160;2023-03-19T03:59:30;101132.75;;;12.18;74.55
66524;BME280;53350;52.210;5.160;2023-03-19T04:01:56;101131.91;;;12.16;74.49
66524;BME280;53350;52.210;5.160;2023-03-19T04:04:23;101134.53;;;12.13;74.49
66524;BME280;53350;52.210;5.160;2023-03-19T04:06:49;101125.97;;;12.11;74.45
66524;BME280;53350;52.210;5.160;2023-03-19T04:09:17;101125.13;;;12.09;74.47
66524;BME280;53350;52.210;5.160;2023-03-19T04:11:44;101132.91;;;12.06;74.37
66524;BME280;53350;52.210;5.160;2023-03-19T04:14:10;101138.09;;;12.05;74.54
66524;BME280;53350;52.210;5.160;2023-03-19T04:16:37;101130.41;;;12.00;74.24
66524;BME280;53350;52.210;5.160;2023-03-19T04:19:03;101134.78;;;11.98;74.27
66524;BME280;53350;52.210;5.160;2023-03-19T04:21:32;101135.66;;;11.95;74.06
66524;BME280;53350;52.210;5.160;2023-03-19T04:23:58;101133.94;;;11.93;74.08
66524;BME280;53350;52.210;5.160;2023-03-19T04:26:27;101135.69;;;11.91;74.13
66524;BME280;53350;52.210;5.160;2023-03-19T04:28:54;101130.53;;;11.89;74.03
66524;BME280;53350;52.210;5.160;2023-03-19T04:31:20;101134.84;;;11.87;74.04
66524;BME280;53350;52.210;5.160;2023-03-19T04:33:47;101141.78;;;11.85;73.90
66524;BME280;53350;52.210;5.160;2023-03-19T04:36:13;101132.31;;;11.84;73.99
66524;BME280;53350;52.210;5.160;2023-03-19T04:38:42;101134.09;;;11.82;73.29
66524;BME280;53350;52.210;5.160;2023-03-19T04:41:08;101140.09;;;11.81;74.06
66524;BME280;53350;52.210;5.160;2023-03-19T04:43:36;101136.69;;;11.80;74.05
66524;BME280;53350;52.210;5.160;2023-03-19T04:46:02;101149.59;;;11.80;74.29
66524;BME280;53350;52.210;5.160;2023-03-19T04:48:31;101148.69;;;11.81;74.36
66524;BME280;53350;52.210;5.160;2023-03-19T04:50:57;101149.56;;;11.82;74.42
66524;BME280;53350;52.210;5.160;2023-03-19T04:53:24;101150.44;;;11.81;74.64
66524;BME280;53350;52.210;5.160;2023-03-19T04:55:50;101147.03;;;11.79;74.91
66524;BME280;53350;52.210;5.160;2023-03-19T04:58:17;101147.03;;;11.76;74.76
66524;BME280;53350;52.210;5.160;2023-03-19T05:00:45;101165.13;;;11.74;74.83
66524;BME280;53350;52.210;5.160;2023-03-19T05:03:12;101162.56;;;11.73;75.19
66524;BME280;53350;52.210;5.160;2023-03-19T05:05:38;101166.88;;;11.72;75.00
66524;BME280;53350;52.210;5.160;2023-03-19T05:08:05;101167.75;;;11.70;74.69
66524;BME280;53350;52.210;5.160;2023-03-19T05:10:32;101173.81;;;11.67;74.89
66524;BME280;53350;52.210;5.160;2023-03-19T05:12:59;101181.59;;;11.64;75.01
66524;BME280;53350;52.210;5.160;2023-03-19T05:15:25;101186.78;;;11.62;75.09
66524;BME280;53350;52.210;5.160;2023-03-19T05:17:53;101181.59;;;11.62;75.11
66524;BME280;53350;52.210;5.160;2023-03-19T05:20:20;101186.78;;;11.62;75.26
66524;BME280;53350;52.210;5.160;2023-03-19T05:22:48;101188.50;;;11.63;75.25
66524;BME280;53350;52.210;5.160;2023-03-19T05:25:14;101195.38;;;11.61;75.32
66524;BME280;53350;52.210;5.160;2023-03-19T05:27:41;101191.94;;;11.62;75.76
66524;BME280;53350;52.210;5.160;2023-03-19T05:30:08;101196.25;;;11.60;75.92
66524;BME280;53350;52.210;5.160;2023-03-19T05:32:35;101192.84;;;11.57;75.83
66524;BME280;53350;52.210;5.160;2023-03-19T05:35:04;101192.88;;;11.55;75.98
66524;BME280;53350;52.210;5.160;2023-03-19T05:37:31;101210.09;;;11.55;76.26
66524;BME280;53350;52.210;5.160;2023-03-19T05:39:57;101204.91;;;11.55;76.31
66524;BME280;53350;52.210;5.160;2023-03-19T05:42:24;101210.09;;;11.55;76.60
66524;BME280;53350;52.210;5.160;2023-03-19T05:44:50;101206.63;;;11.56;76.45
66524;BME280;53350;52.210;5.160;2023-03-19T05:47:17;101210.94;;;11.55;76.52
66524;BME280;53350;52.210;5.160;2023-03-19T05:49:43;101210.94;;;11.54;76.73
66524;BME280;53350;52.210;5.160;2023-03-19T05:52:11;101214.38;;;11.53;76.62
66524;BME280;53350;52.210;5.160;2023-03-19T05:54:38;101221.25;;;11.54;76.83
66524;BME280;53350;52.210;5.160;2023-03-19T05:57:06;101218.69;;;11.52;76.70
66524;BME280;53350;52.210;5.160;2023-03-19T05:59:33;101220.47;;;11.48;76.68
66524;BME280;53350;52.210;5.160;2023-03-19T06:02:00;101217.09;;;11.42;77.01
66524;BME280;53350;52.210;5.160;2023-03-19T06:04:26;101218.81;;;11.38;76.87
66524;BME280;53350;52.210;5.160;2023-03-19T06:06:52;101216.28;;;11.35;77.06
66524;BME280;53350;52.210;5.160;2023-03-19T06:09:20;101221.44;;;11.35;76.89
66524;BME280;53350;52.210;5.160;2023-03-19T06:11:47;101230.91;;;11.33;76.98
66524;BME280;53350;52.210;5.160;2023-03-19T06:14:13;101228.41;;;11.28;77.10
66524;BME280;53350;52.210;5.160;2023-03-19T06:16:39;101231.84;;;11.26;77.08
66524;BME280;53350;52.210;5.160;2023-03-19T06:19:06;101236.16;;;11.22;77.30
66524;BME280;53350;52.210;5.160;2023-03-19T06:21:33;101230.19;;;11.19;77.12
66524;BME280;53350;52.210;5.160;2023-03-19T06:24:00;101232.75;;;11.22;77.31
66524;BME280;53350;52.210;5.160;2023-03-19T06:26:28;101236.16;;;11.27;77.56
66524;BME280;53350;52.210;5.160;2023-03-19T06:28:54;101236.97;;;11.29;77.07
66524;BME280;53350;52.210;5.160;2023-03-19T06:31:21;101244.72;;;11.27;77.05
66524;BME280;53350;52.210;5.160;2023-03-19T06:33:48;101252.44;;;11.29;76.98
66524;BME280;53350;52.210;5.160;2023-03-19T06:36:14;101255.88;;;11.28;77.15
66524;BME280;53350;52.210;5.160;2023-03-19T06:38:41;101258.47;;;11.28;76.95
66524;BME280;53350;52.210;5.160;2023-03-19T06:41:07;101269.66;;;11.27;77.30
66524;BME280;53350;52.210;5.160;2023-03-19T06:43:35;101273.13;;;11.23;77.20
66524;BME280;53350;52.210;5.160;2023-03-19T06:46:02;101268.81;;;11.23;77.36
66524;BME280;53350;52.210;5.160;2023-03-19T06:48:28;101286.00;;;11.26;77.28
66524;BME280;53350;52.210;5.160;2023-03-19T06:50:55;101283.41;;;11.26;77.43
66524;BME280;53350;52.210;5.160;2023-03-19T06:53:21;101279.09;;;11.26;77.37
66524;BME280;53350;52.210;5.160;2023-03-19T06:55:48;101277.41;;;11.22;77.05
66524;BME280;53350;52.210;5.160;2023-03-19T06:58:14;101285.16;;;11.21;77.56
66524;BME280;53350;52.210;5.160;2023-03-19T07:00:42;101291.22;;;11.20;77.38
66524;BME280;53350;52.210;5.160;2023-03-19T07:03:09;101292.91;;;11.21;77.51
66524;BME280;53350;52.210;5.160;2023-03-19T07:05:36;101285.19;;;11.18;77.49
66524;BME280;53350;52.210;5.160;2023-03-19T07:08:03;101298.09;;;11.18;77.80
66524;BME280;53350;52.210;5.160;2023-03-19T07:10:35;101298.06;;;11.19;77.63
66524;BME280;53350;52.210;5.160;2023-03-19T07:13:02;101304.13;;;11.17;77.53
66524;BME280;53350;52.210;5.160;2023-03-19T07:15:29;101309.28;;;11.12;77.59
66524;BME280;53350;52.210;5.160;2023-03-19T07:17:57;101308.47;;;11.08;77.97
66524;BME280;53350;52.210;5.160;2023-03-19T07:20:23;101314.47;;;11.09;78.05
66524;BME280;53350;52.210;5.160;2023-03-19T07:22:50;101323.09;;;11.09;78.17
66524;BME280;53350;52.210;5.160;2023-03-19T07:25:17;101322.22;;;11.09;78.23
66524;BME280;53350;52.210;5.160;2023-03-19T07:27:44;101329.13;;;11.07;78.26
66524;BME280;53350;52.210;5.160;2023-03-19T07:30:11;101335.13;;;11.07;78.42
66524;BME280;53350;52.210;5.160;2023-03-19T07:32:38;101336.84;;;11.08;78.66
66524;BME280;53350;52.210;5.160;2023-03-19T07:35:07;101335.97;;;11.06;78.61
66524;BME280;53350;52.210;5.160;2023-03-19T07:37:34;101335.97;;;11.06;78.86
66524;BME280;53350;52.210;5.160;2023-03-19T07:40:01;101346.28;;;11.12;79.08
66524;BME280;53350;52.210;5.160;2023-03-19T07:42:29;101341.94;;;11.16;79.18
66524;BME280;53350;52.210;5.160;2023-03-19T07:44:55;101340.22;;;11.17;78.23
66524;BME280;53350;52.210;5.160;2023-03-19T07:47:22;101347.94;;;11.21;79.05
66524;BME280;53350;52.210;5.160;2023-03-19T07:49:48;101344.44;;;11.24;78.88
66524;BME280;53350;52.210;5.160;2023-03-19T07:52:16;101345.31;;;11.26;78.63
66524;BME280;53350;52.210;5.160;2023-03-19T07:54:43;101342.69;;;11.32;78.85
66524;BME280;53350;52.210;5.160;2023-03-19T07:57:10;101346.13;;;11.34;78.95
66524;BME280;53350;52.210;5.160;2023-03-19T07:59:36;101357.22;;;11.44;78.95
66524;BME280;53350;52.210;5.160;2023-03-19T08:02:03;101353.75;;;11.48;78.27
66524;BME280;53350;52.210;5.160;2023-03-19T08:04:29;101362.38;;;11.44;78.05
66524;BME280;53350;52.210;5.160;2023-03-19T08:06:55;101363.25;;;11.43;78.36
66524;BME280;53350;52.210;5.160;2023-03-19T08:09:23;101356.31;;;11.48;78.42
66524;BME280;53350;52.210;5.160;2023-03-19T08:11:50;101353.72;;;11.49;78.25
66524;BME280;53350;52.210;5.160;2023-03-19T08:14:16;101352.00;;;11.53;77.82
66524;BME280;53350;52.210;5.160;2023-03-19T08:16:46;101360.56;;;11.54;77.75
66524;BME280;53350;52.210;5.160;2023-03-19T08:19:13;101360.56;;;11.54;77.57
66524;BME280;53350;52.210;5.160;2023-03-19T08:21:39;101370.94;;;11.51;77.73
66524;BME280;53350;52.210;5.160;2023-03-19T08:24:06;101371.78;;;11.49;78.01
66524;BME280;53350;52.210;5.160;2023-03-19T08:26:34;101376.91;;;11.53;78.18
66524;BME280;53350;52.210;5.160;2023-03-19T08:29:02;101364.88;;;11.56;77.75
66524;BME280;53350;52.210;5.160;2023-03-19T08:31:28;101377.75;;;11.58;77.65
66524;BME280;53350;52.210;5.160;2023-03-19T08:33:55;101379.47;;;11.59;77.81
66524;BME280;53350;52.210;5.160;2023-03-19T08:36:24;101382.88;;;11.61;77.98
66524;BME280;53350;52.210;5.160;2023-03-19T08:38:51;101369.13;;;11.60;77.86
66524;BME280;53350;52.210;5.160;2023-03-19T08:41:19;101385.44;;;11.62;77.69
66524;BME280;53350;52.210;5.160;2023-03-19T08:43:47;101388.91;;;11.63;78.06
66524;BME280;53350;52.210;5.160;2023-03-19T08:46:14;101388.00;;;11.64;77.92
66524;BME280;53350;52.210;5.160;2023-03-19T08:48:41;101397.47;;;11.65;78.04
66524;BME280;53350;52.210;5.160;2023-03-19T08:51:07;101409.47;;;11.71;77.98
66524;BME280;53350;52.210;5.160;2023-03-19T08:53:34;101410.31;;;11.73;77.79
66524;BME280;53350;52.210;5.160;2023-03-19T08:56:02;101409.44;;;11.75;77.70
66524;BME280;53350;52.210;5.160;2023-03-19T08:58:29;101408.53;;;11.81;78.05
66524;BME280;53350;52.210;5.160;2023-03-19T09:01:02;101421.44;;;11.82;77.70
66524;BME280;53350;52.210;5.160;2023-03-19T09:03:29;101411.91;;;11.91;77.10
66524;BME280;53350;52.210;5.160;2023-03-19T09:05:57;101405.94;;;11.82;77.44
66524;BME280;53350;52.210;5.160;2023-03-19T09:08:25;101427.41;;;11.94;77.87
66524;BME280;53350;52.210;5.160;2023-03-19T09:10:52;101415.31;;;11.97;77.56
66524;BME280;53350;52.210;5.160;2023-03-19T09:13:18;101406.66;;;12.03;77.36
66524;BME280;53350;52.210;5.160;2023-03-19T09:15:45;101419.50;;;12.11;77.41
66524;BME280;53350;52.210;5.160;2023-03-19T09:18:13;101416.03;;;12.12;77.40
66524;BME280;53350;52.210;5.160;2023-03-19T09:20:39;101425.47;;;12.14;77.22
66524;BME280;53350;52.210;5.160;2023-03-19T09:23:06;101428.91;;;12.16;77.62
66524;BME280;53350;52.210;5.160;2023-03-19T09:25:32;101422.88;;;12.17;77.13
66524;BME280;53350;52.210;5.160;2023-03-19T09:27:59;101434.09;;;12.13;77.05
66524;BME280;53350;52.210;5.160;2023-03-19T09:30:25;101436.66;;;12.15;76.79
66524;BME280;53350;52.210;5.160;2023-03-19T09:32:52;101440.13;;;12.15;77.12
66524;BME280;53350;52.210;5.160;2023-03-19T09:35:20;101435.78;;;12.16;77.03
66524;BME280;53350;52.210;5.160;2023-03-19T09:37:47;101445.31;;;12.14;76.62
66524;BME280;53350;52.210;5.160;2023-03-19T09:40:20;101452.19;;;12.10;76.62
66524;BME280;53350;52.210;5.160;2023-03-19T09:42:57;101463.41;;;12.08;76.52
66524;BME280;53350;52.210;5.160;2023-03-19T09:45:26;101461.66;;;12.13;76.52
66524;BME280;53350;52.210;5.160;2023-03-19T09:47:55;101453.88;;;12.14;76.52
66524;BME280;53350;52.210;5.160;2023-03-19T09:50:25;101469.31;;;12.21;76.40
66524;BME280;53350;52.210;5.160;2023-03-19T09:52:56;101460.72;;;12.20;76.35
66524;BME280;53350;52.210;5.160;2023-03-19T09:55:37;101468.41;;;12.28;76.26
66524;BME280;53350;52.210;5.160;2023-03-19T09:58:12;101464.16;;;12.21;76.15
66524;BME280;53350;52.210;5.160;2023-03-19T10:00:40;101468.41;;;12.28;76.34
66524;BME280;53350;52.210;5.160;2023-03-19T10:03:21;101477.84;;;12.30;76.40
66524;BME280;53350;52.210;5.160;2023-03-19T10:05:56;101470.97;;;12.29;76.36
66524;BME280;53350;52.210;5.160;2023-03-19T10:08:49;101481.25;;;12.37;76.35
66524;BME280;53350;52.210;5.160;2023-03-19T10:11:31;101474.31;;;12.41;76.42
66524;BME280;53350;52.210;5.160;2023-03-19T10:14:01;101478.53;;;12.48;76.02
66524;BME280;53350;52.210;5.160;2023-03-19T10:16:35;101476.78;;;12.53;75.92
66524;BME280;53350;52.210;5.160;2023-03-19T10:19:04;101484.47;;;12.59;76.15
66524;BME280;53350;52.210;5.160;2023-03-19T10:21:35;101483.53;;;12.66;75.79
66524;BME280;53350;52.210;5.160;2023-03-19T10:24:10;101489.53;;;12.72;75.60
66524;BME280;53350;52.210;5.160;2023-03-19T10:26:38;101486.03;;;12.74;75.85
66524;BME280;53350;52.210;5.160;2023-03-19T10:29:07;101490.31;;;12.77;75.72
66524;BME280;53350;52.210;5.160;2023-03-19T10:31:48;101491.13;;;12.82;75.95
66524;BME280;53350;52.210;5.160;2023-03-19T10:34:24;101481.59;;;12.85;75.41
66524;BME280;53350;52.210;5.160;2023-03-19T10:36:59;101488.47;;;12.88;75.36
66524;BME280;53350;52.210;5.160;2023-03-19T10:39:29;101495.34;;;12.91;75.39
66524;BME280;53350;52.210;5.160;2023-03-19T10:42:02;101497.03;;;12.95;75.28
66524;BME280;53350;52.210;5.160;2023-03-19T10:44:36;101501.34;;;12.93;75.36
66524;BME280;53350;52.210;5.160;2023-03-19T10:47:11;101506.56;;;12.88;75.32
66524;BME280;53350;52.210;5.160;2023-03-19T10:49:39;101509.13;;;12.90;75.67
66524;BME280;53350;52.210;5.160;2023-03-19T10:52:16;101499.59;;;12.95;75.59
66524;BME280;53350;52.210;5.160;2023-03-19T10:54:45;101506.38;;;13.02;75.05
66524;BME280;53350;52.210;5.160;2023-03-19T10:57:21;101518.44;;;13.04;74.95
66524;BME280;53350;52.210;5.160;2023-03-19T10:59:48;101514.97;;;13.05;74.94
66524;BME280;53350;52.210;5.160;2023-03-19T11:02:17;101512.38;;;13.07;74.96
66524;BME280;53350;52.210;5.160;2023-03-19T11:04:44;101510.63;;;13.09;74.89
66524;BME280;53350;52.210;5.160;2023-03-19T11:07:13;101501.22;;;13.03;74.98
66524;BME280;53350;52.210;5.160;2023-03-19T11:09:45;101522.59;;;13.16;74.78
66524;BME280;53350;52.210;5.160;2023-03-19T11:12:20;101510.56;;;13.15;74.89
66524;BME280;53350;52.210;5.160;2023-03-19T11:14:50;101513.09;;;13.20;74.35
66524;BME280;53350;52.210;5.160;2023-03-19T11:17:22;101510.50;;;13.20;74.50
66524;BME280;53350;52.210;5.160;2023-03-19T11:19:52;101513.97;;;13.19;74.08
66524;BME280;53350;52.210;5.160;2023-03-19T11:22:22;101514.84;;;13.18;74.37
66524;BME280;53350;52.210;5.160;2023-03-19T11:24:52;101513.13;;;13.17;74.32
66524;BME280;53350;52.210;5.160;2023-03-19T11:27:26;101518.31;;;13.15;74.26
66524;BME280;53350;52.210;5.160;2023-03-19T11:29:54;101515.69;;;13.20;74.27
66524;BME280;53350;52.210;5.160;2023-03-19T11:32:47;101519.06;;;13.23;74.01
66524;BME280;53350;52.210;5.160;2023-03-19T11:35:20;101518.16;;;13.28;73.83
66524;BME280;53350;52.210;5.160;2023-03-19T11:37:53;101509.50;;;13.30;74.13
66524;BME280;53350;52.210;5.160;2023-03-19T11:40:28;101515.53;;;13.31;73.93
66524;BME280;53350;52.210;5.160;2023-03-19T11:43:10;101511.28;;;13.28;73.91
66524;BME280;53350;52.210;5.160;2023-03-19T11:45:49;101519.84;;;13.32;73.84
66524;BME280;53350;52.210;5.160;2023-03-19T11:48:33;101516.34;;;13.37;73.77
66524;BME280;53350;52.210;5.160;2023-03-19T11:51:08;101513.72;;;13.41;73.36
66524;BME280;53350;52.210;5.160;2023-03-19T11:53:46;101521.47;;;13.42;73.40
66524;BME280;53350;52.210;5.160;2023-03-19T11:56:22;101530.97;;;13.42;73.47
66524;BME280;53350;52.210;5.160;2023-03-19T11:59:04;101526.66;;;13.41;73.54
66524;BME280;53350;52.210;5.160;2023-03-19T12:04:53;101532.63;;;13.47;72.94
66524;BME280;53350;52.210;5.160;2023-03-19T12:07:30;101529.19;;;13.45;72.59
66524;BME280;53350;52.210;5.160;2023-03-19T12:10:16;101524.03;;;13.44;72.87
66524;BME280;53350;52.210;5.160;2023-03-19T12:12:59;101530.81;;;13.51;72.18
66524;BME280;53350;52.210;5.160;2023-03-19T12:15:36;101517.00;;;13.53;72.02
66524;BME280;53350;52.210;5.160;2023-03-19T12:18:15;101523.94;;;13.51;72.32
66524;BME280;53350;52.210;5.160;2023-03-19T12:20:53;101529.06;;;13.54;72.11
66524;BME280;53350;52.210;5.160;2023-03-19T12:23:36;101534.28;;;13.53;71.93
66524;BME280;53350;52.210;5.160;2023-03-19T12:26:08;101535.13;;;13.52;71.21
66524;BME280;53350;52.210;5.160;2023-03-19T12:28:45;101538.59;;;13.51;71.46
66524;BME280;53350;52.210;5.160;2023-03-19T12:34:06;101547.16;;;13.56;71.27
66524;BME280;53350;52.210;5.160;2023-03-19T12:36:38;101552.28;;;13.61;71.03
66524;BME280;53350;52.210;5.160;2023-03-19T12:39:11;101559.09;;;13.66;70.90
66524;BME280;53350;52.210;5.160;2023-03-19T12:41:43;101554.75;;;13.68;70.71
66524;BME280;53350;52.210;5.160;2023-03-19T12:44:14;101542.81;;;13.58;70.53
66524;BME280;53350;52.210;5.160;2023-03-19T12:46:48;101555.72;;;13.60;70.23
66524;BME280;53350;52.210;5.160;2023-03-19T12:49:20;101559.22;;;13.59;70.39
66524;BME280;53350;52.210;5.160;2023-03-19T12:51:53;101566.97;;;13.59;70.46
66524;BME280;53350;52.210;5.160;2023-03-19T12:54:23;101572.13;;;13.62;70.59
66524;BME280;53350;52.210;5.160;2023-03-19T12:56:56;101560.88;;;13.63;70.49
66524;BME280;53350;52.210;5.160;2023-03-19T12:59:28;101566.81;;;13.69;70.65
66524;BME280;53350;52.210;5.160;2023-03-19T13:02:00;101566.81;;;13.71;70.81
66524;BME280;53350;52.210;5.160;2023-03-19T13:04:30;101565.88;;;13.77;70.45